sensor_id;sensor_type;location;lat;lon;timestamp;temperature;humidity
19000;DHT22;9633;50.980;13.850;2023-04-24T00:00:38;10.70;99.90
19000;DHT22;9633;50.980;13.850;2023-04-24T00:02:12;10.70;99.90
19000;DHT22;9633;50.980;13.850;2023-04-24T00:03:45;10.70;99.90
19000;DHT22;9633;50.980;13.850;2023-04-24T00:05:18;10.70;99.90
19000;DHT22;9633;50.980;13.850;2023-04-24T00:06:51;10.70;99.90
19000;DHT22;9633;50.980;13.850;2023-04-24T00:08:28;10.70;99.90
19000;DHT22;9633;50.980;13.850;2023-04-24T00:10:00;10.70;99.90
19000;DHT22;9633;50.980;13.850;2023-04-24T00:11:35;10.70;99.90
19000;DHT22;9633;50.980;13.850;2023-04-24T00:13:09;10.70;99.90
19000;DHT22;9633;50.980;13.850;2023-04-24T00:14:41;10.60;99.90
19000;DHT22;9633;50.980;13.850;2023-04-24T00:16:14;10.60;99.90
19000;DHT22;9633;50.980;13.850;2023-04-24T00:17:47;10.60;99.90
19000;DHT22;9633;50.980;13.850;2023-04-24T00:19:20;10.60;99.90
19000;DHT22;9633;50.980;13.850;2023-04-24T00:20:54;10.60;99.90
19000;DHT22;9633;50.980;13.850;2023-04-24T00:22:27;10.60;99.90
19000;DHT22;9633;50.980;13.850;2023-04-24T00:24:01;10.60;99.90
19000;DHT22;9633;50.980;13.850;2023-04-24T00:25:34;10.60;99.90
19000;DHT22;9633;50.980;13.850;2023-04-24T00:27:08;10.50;99.90
19000;DHT22;9633;50.980;13.850;2023-04-24T00:28:42;10.60;99.90
19000;DHT22;9633;50.980;13.850;2023-04-24T00:30:15;10.60;99.90
19000;DHT22;9633;50.980;13.850;2023-04-24T00:31:48;10.50;99.90
19000;DHT22;9633;50.980;13.850;2023-04-24T00:33:21;10.60;99.90
19000;DHT22;9633;50.980;13.850;2023-04-24T00:34:54;10.70;99.90
19000;DHT22;9633;50.980;13.850;2023-04-24T00:36:27;10.70;99.90
19000;DHT22;9633;50.980;13.850;2023-04-24T00:38:00;10.70;99.90
19000;DHT22;9633;50.980;13.850;2023-04-24T00:39:33;10.70;99.90
19000;DHT22;9633;50.980;13.850;2023-04-24T00:41:06;10.70;99.90
19000;DHT22;9633;50.980;13.850;2023-04-24T00:42:41;10.70;99.90
19000;DHT22;9633;50.980;13.850;2023-04-24T00:44:14;10.70;99.90
19000;DHT22;9633;50.980;13.850;2023-04-24T00:45:48;10.70;99.90
19000;DHT22;9633;50.980;13.850;2023-04-24T00:47:21;10.70;99.90
19000;DHT22;9633;50.980;13.850;2023-04-24T00:48:56;10.70;99.90
19000;DHT22;9633;50.980;13.850;2023-04-24T00:50:29;10.70;99.90
19000;DHT22;9633;50.980;13.850;2023-04-24T00:52:03;10.70;99.90
19000;DHT22;9633;50.980;13.850;2023-04-24T00:53:39;10.70;99.90
19000;DHT22;9633;50.980;13.850;2023-04-24T00:55:12;10.70;99.90
19000;DHT22;9633;50.980;13.850;2023-04-24T00:56:45;10.70;99.90
19000;DHT22;9633;50.980;13.850;2023-04-24T00:58:19;10.60;99.90
19000;DHT22;9633;50.980;13.850;2023-04-24T00:59:53;10.60;99.90
19000;DHT22;9633;50.980;13.850;2023-04-24T01:01:25;10.60;99.90
19000;DHT22;9633;50.980;13.850;2023-04-24T01:02:59;10.60;99.90
19000;DHT22;9633;50.980;13.850;2023-04-24T01:04:34;10.50;99.90
19000;DHT22;9633;50.980;13.850;2023-04-24T01:06:09;10.50;99.90
19000;DHT22;9633;50.980;13.850;2023-04-24T01:07:45;10.50;99.90
19000;DHT22;9633;50.980;13.850;2023-04-24T01:09:21;10.50;99.90
19000;DHT22;9633;50.980;13.850;2023-04-24T01:10:57;10.50;99.90
19000;DHT22;9633;50.980;13.850;2023-04-24T01:12:30;10.50;99.90
19000;DHT22;9633;50.980;13.850;2023-04-24T01:14:05;10.60;99.90
19000;DHT22;9633;50.980;13.850;2023-04-24T01:15:39;10.70;99.90
19000;DHT22;9633;50.980;13.850;2023-04-24T01:17:12;10.70;99.90
19000;DHT22;9633;50.980;13.850;2023-04-24T01:18:45;10.70;99.90
19000;DHT22;9633;50.980;13.850;2023-04-24T01:20:19;10.60;99.90
19000;DHT22;9633;50.980;13.850;2023-04-24T01:21:54;10.60;99.90
19000;DHT22;9633;50.980;13.850;2023-04-24T01:23:31;10.70;99.90
19000;DHT22;9633;50.980;13.850;2023-04-24T01:25:05;10.70;99.90
19000;DHT22;9633;50.980;13.850;2023-04-24T01:26:38;10.80;99.90
19000;DHT22;9633;50.980;13.850;2023-04-24T01:28:11;10.90;99.90
19000;DHT22;9633;50.980;13.850;2023-04-24T01:29:46;10.90;99.90
19000;DHT22;9633;50.980;13.850;2023-04-24T01:31:20;10.90;99.90
19000;DHT22;9633;50.980;13.850;2023-04-24T01:32:53;10.90;99.90
19000;DHT22;9633;50.980;13.850;2023-04-24T01:34:26;10.90;99.90
19000;DHT22;9633;50.980;13.850;2023-04-24T01:35:59;10.90;99.90
19000;DHT22;9633;50.980;13.850;2023-04-24T01:37:33;10.90;99.90
19000;DHT22;9633;50.980;13.850;2023-04-24T01:39:07;10.80;99.90
19000;DHT22;9633;50.980;13.850;2023-04-24T01:40:40;10.80;99.90
19000;DHT22;9633;50.980;13.850;2023-04-24T01:42:14;10.80;99.90
19000;DHT22;9633;50.980;13.850;2023-04-24T01:43:48;10.80;99.90
19000;DHT22;9633;50.980;13.850;2023-04-24T01:45:24;10.90;99.90
19000;DHT22;9633;50.980;13.850;2023-04-24T01:46:57;10.80;99.90
19000;DHT22;9633;50.980;13.850;2023-04-24T01:48:30;10.80;99.90
19000;DHT22;9633;50.980;13.850;2023-04-24T01:50:05;10.80;99.90
19000;DHT22;9633;50.980;13.850;2023-04-24T01:51:38;10.80;99.90
19000;DHT22;9633;50.980;13.850;2023-04-24T01:53:11;10.80;99.90
19000;DHT22;9633;50.980;13.850;2023-04-24T01:54:45;10.70;99.90
19000;DHT22;9633;50.980;13.850;2023-04-24T01:56:18;10.60;99.90
19000;DHT22;9633;50.980;13.850;2023-04-24T01:57:54;10.60;99.90
19000;DHT22;9633;50.980;13.850;2023-04-24T01:59:28;10.60;99.90
19000;DHT22;9633;50.980;13.850;2023-04-24T02:01:02;10.60;99.90
19000;DHT22;9633;50.980;13.850;2023-04-24T02:02:34;10.60;99.90
19000;DHT22;9633;50.980;13.850;2023-04-24T02:04:08;10.60;99.90
19000;DHT22;9633;50.980;13.850;2023-04-24T02:05:43;10.50;99.90
19000;DHT22;9633;50.980;13.850;2023-04-24T02:07:16;10.50;99.90
19000;DHT22;9633;50.980;13.850;2023-04-24T02:08:48;10.50;99.90
19000;DHT22;9633;50.980;13.850;2023-04-24T02:10:23;10.50;99.90
19000;DHT22;9633;50.980;13.850;2023-04-24T02:11:57;10.40;99.90
19000;DHT22;9633;50.980;13.850;2023-04-24T02:13:30;10.40;99.90
19000;DHT22;9633;50.980;13.850;2023-04-24T02:15:02;10.30;99.90
19000;DHT22;9633;50.980;13.850;2023-04-24T02:16:35;10.30;99.90
19000;DHT22;9633;50.980;13.850;2023-04-24T02:18:09;10.30;99.90
19000;DHT22;9633;50.980;13.850;2023-04-24T02:19:43;10.40;99.90
19000;DHT22;9633;50.980;13.850;2023-04-24T02:21:16;10.50;99.90
19000;DHT22;9633;50.980;13.850;2023-04-24T02:22:49;10.50;99.90
19000;DHT22;9633;50.980;13.850;2023-04-24T02:24:22;10.40;99.90
19000;DHT22;9633;50.980;13.850;2023-04-24T02:25:57;10.40;99.90
19000;DHT22;9633;50.980;13.850;2023-04-24T02:27:30;10.30;99.90
19000;DHT22;9633;50.980;13.850;2023-04-24T02:29:03;10.40;99.90
19000;DHT22;9633;50.980;13.850;2023-04-24T02:30:36;10.30;99.90
19000;DHT22;9633;50.980;13.850;2023-04-24T02:32:09;10.30;99.90
19000;DHT22;9633;50.980;13.850;2023-04-24T02:33:44;10.30;99.90
19000;DHT22;9633;50.980;13.850;2023-04-24T02:35:17;10.30;99.90
19000;DHT22;9633;50.980;13.850;2023-04-24T02:36:49;10.30;99.90
19000;DHT22;9633;50.980;13.850;2023-04-24T02:38:23;10.30;99.90
19000;DHT22;9633;50.980;13.850;2023-04-24T02:39:56;10.30;99.90
19000;DHT22;9633;50.980;13.850;2023-04-24T02:41:30;10.20;99.90
19000;DHT22;9633;50.980;13.850;2023-04-24T02:43:04;10.20;99.90
19000;DHT22;9633;50.980;13.850;2023-04-24T02:44:37;10.20;99.90
19000;DHT22;9633;50.980;13.850;2023-04-24T02:46:11;10.20;99.90
19000;DHT22;9633;50.980;13.850;2023-04-24T02:47:43;10.30;99.90
19000;DHT22;9633;50.980;13.850;2023-04-24T02:49:16;10.20;99.90
19000;DHT22;9633;50.980;13.850;2023-04-24T02:50:48;10.30;99.90
19000;DHT22;9633;50.980;13.850;2023-04-24T02:52:22;10.30;99.90
19000;DHT22;9633;50.980;13.850;2023-04-24T02:53:55;10.30;99.90
19000;DHT22;9633;50.980;13.850;2023-04-24T02:55:28;10.20;99.90
19000;DHT22;9633;50.980;13.850;2023-04-24T02:57:03;10.30;99.90
19000;DHT22;9633;50.980;13.850;2023-04-24T02:58:36;10.20;99.90
19000;DHT22;9633;50.980;13.850;2023-04-24T03:00:10;10.20;99.90
19000;DHT22;9633;50.980;13.850;2023-04-24T03:01:44;10.20;99.90
19000;DHT22;9633;50.980;13.850;2023-04-24T03:03:17;10.20;99.90
19000;DHT22;9633;50.980;13.850;2023-04-24T03:04:50;10.20;99.90
19000;DHT22;9633;50.980;13.850;2023-04-24T03:06:25;10.20;99.90
19000;DHT22;9633;50.980;13.850;2023-04-24T03:07:58;10.20;99.90
19000;DHT22;9633;50.980;13.850;2023-04-24T03:09:31;10.30;99.90
19000;DHT22;9633;50.980;13.850;2023-04-24T03:11:04;10.30;99.90
19000;DHT22;9633;50.980;13.850;2023-04-24T03:12:39;10.30;99.90
19000;DHT22;9633;50.980;13.850;2023-04-24T03:14:11;10.40;99.90
19000;DHT22;9633;50.980;13.850;2023-04-24T03:15:44;10.40;99.90
19000;DHT22;9633;50.980;13.850;2023-04-24T03:17:18;10.30;99.90
19000;DHT22;9633;50.980;13.850;2023-04-24T03:18:51;10.30;99.90
19000;DHT22;9633;50.980;13.850;2023-04-24T03:20:25;10.40;99.90
19000;DHT22;9633;50.980;13.850;2023-04-24T03:22:01;10.40;99.90
19000;DHT22;9633;50.980;13.850;2023-04-24T03:23:35;10.50;99.90
19000;DHT22;9633;50.980;13.850;2023-04-24T03:25:09;10.50;99.90
19000;DHT22;9633;50.980;13.850;2023-04-24T03:26:42;10.50;99.90
19000;DHT22;9633;50.980;13.850;2023-04-24T03:28:30;10.60;99.90
19000;DHT22;9633;50.980;13.850;2023-04-24T03:30:08;10.60;99.90
19000;DHT22;9633;50.980;13.850;2023-04-24T03:32:01;10.60;99.90
19000;DHT22;9633;50.980;13.850;2023-04-24T03:33:34;10.60;99.90
19000;DHT22;9633;50.980;13.850;2023-04-24T03:35:08;10.70;99.90
19000;DHT22;9633;50.980;13.850;2023-04-24T03:36:42;10.70;99.90
19000;DHT22;9633;50.980;13.850;2023-04-24T03:38:16;10.80;99.90
19000;DHT22;9633;50.980;13.850;2023-04-24T03:40:11;10.80;99.90
19000;DHT22;9633;50.980;13.850;2023-04-24T03:41:45;10.80;99.90
19000;DHT22;9633;50.980;13.850;2023-04-24T03:43:22;10.80;99.90
19000;DHT22;9633;50.980;13.850;2023-04-24T03:44:57;10.80;99.90
19000;DHT22;9633;50.980;13.850;2023-04-24T03:46:35;10.80;99.90
19000;DHT22;9633;50.980;13.850;2023-04-24T03:48:08;10.70;99.90
19000;DHT22;9633;50.980;13.850;2023-04-24T03:49:41;10.70;99.90
19000;DHT22;9633;50.980;13.850;2023-04-24T03:51:15;10.70;99.90
19000;DHT22;9633;50.980;13.850;2023-04-24T03:52:50;10.70;99.90
19000;DHT22;9633;50.980;13.850;2023-04-24T03:54:34;10.70;99.90
19000;DHT22;9633;50.980;13.850;2023-04-24T03:56:07;10.60;99.90
19000;DHT22;9633;50.980;13.850;2023-04-24T03:57:40;10.60;99.90
19000;DHT22;9633;50.980;13.850;2023-04-24T03:59:22;10.50;99.90
19000;DHT22;9633;50.980;13.850;2023-04-24T04:01:10;10.50;99.90
19000;DHT22;9633;50.980;13.850;2023-04-24T04:02:55;10.50;99.90
19000;DHT22;9633;50.980;13.850;2023-04-24T04:04:29;10.50;99.90
19000;DHT22;9633;50.980;13.850;2023-04-24T04:06:04;10.40;99.90
19000;DHT22;9633;50.980;13.850;2023-04-24T04:07:37;10.30;99.90
19000;DHT22;9633;50.980;13.850;2023-04-24T04:09:10;10.40;99.90
19000;DHT22;9633;50.980;13.850;2023-04-24T04:10:44;10.50;99.90
19000;DHT22;9633;50.980;13.850;2023-04-24T04:12:17;10.60;99.90
19000;DHT22;9633;50.980;13.850;2023-04-24T04:13:50;10.50;99.90
19000;DHT22;9633;50.980;13.850;2023-04-24T04:15:26;10.60;99.90
19000;DHT22;9633;50.980;13.850;2023-04-24T04:17:01;10.70;99.90
19000;DHT22;9633;50.980;13.850;2023-04-24T04:18:34;10.80;99.90
19000;DHT22;9633;50.980;13.850;2023-04-24T04:20:08;10.90;99.90
19000;DHT22;9633;50.980;13.850;2023-04-24T04:21:44;10.90;99.90
19000;DHT22;9633;50.980;13.850;2023-04-24T04:23:33;10.90;99.90
19000;DHT22;9633;50.980;13.850;2023-04-24T04:25:12;11.00;99.90
19000;DHT22;9633;50.980;13.850;2023-04-24T04:26:46;11.00;99.90
19000;DHT22;9633;50.980;13.850;2023-04-24T04:28:30;11.00;99.90
19000;DHT22;9633;50.980;13.850;2023-04-24T04:30:06;11.10;99.90
19000;DHT22;9633;50.980;13.850;2023-04-24T04:31:49;11.10;99.90
19000;DHT22;9633;50.980;13.850;2023-04-24T04:33:24;11.20;99.90
19000;DHT22;9633;50.980;13.850;2023-04-24T04:34:57;11.30;99.90
19000;DHT22;9633;50.980;13.850;2023-04-24T04:36:36;11.30;99.90
19000;DHT22;9633;50.980;13.850;2023-04-24T04:38:25;11.30;99.90
19000;DHT22;9633;50.980;13.850;2023-04-24T04:40:07;11.30;99.90
19000;DHT22;9633;50.980;13.850;2023-04-24T04:41:51;11.40;99.90
19000;DHT22;9633;50.980;13.850;2023-04-24T04:43:27;11.60;99.90
19000;DHT22;9633;50.980;13.850;2023-04-24T04:45:00;11.60;99.90
19000;DHT22;9633;50.980;13.850;2023-04-24T04:46:45;11.60;99.90
19000;DHT22;9633;50.980;13.850;2023-04-24T04:48:41;11.60;99.90
19000;DHT22;9633;50.980;13.850;2023-04-24T04:50:14;11.70;99.90
19000;DHT22;9633;50.980;13.850;2023-04-24T04:51:48;11.70;99.90
19000;DHT22;9633;50.980;13.850;2023-04-24T04:53:23;11.80;99.90
19000;DHT22;9633;50.980;13.850;2023-04-24T04:54:57;11.80;99.90
19000;DHT22;9633;50.980;13.850;2023-04-24T04:56:41;11.90;99.90
19000;DHT22;9633;50.980;13.850;2023-04-24T04:58:14;11.90;99.90
19000;DHT22;9633;50.980;13.850;2023-04-24T04:59:49;11.90;99.90
19000;DHT22;9633;50.980;13.850;2023-04-24T05:01:35;11.90;99.90
19000;DHT22;9633;50.980;13.850;2023-04-24T05:03:10;12.00;99.90
19000;DHT22;9633;50.980;13.850;2023-04-24T05:04:51;12.00;99.90
19000;DHT22;9633;50.980;13.850;2023-04-24T05:06:25;12.00;99.90
19000;DHT22;9633;50.980;13.850;2023-04-24T05:07:59;12.10;99.90
19000;DHT22;9633;50.980;13.850;2023-04-24T05:09:33;12.20;99.90
19000;DHT22;9633;50.980;13.850;2023-04-24T05:11:08;12.30;99.90
19000;DHT22;9633;50.980;13.850;2023-04-24T05:12:43;12.40;99.90
19000;DHT22;9633;50.980;13.850;2023-04-24T05:14:17;12.50;99.90
19000;DHT22;9633;50.980;13.850;2023-04-24T05:15:50;12.70;99.90
19000;DHT22;9633;50.980;13.850;2023-04-24T05:17:24;12.80;99.90
19000;DHT22;9633;50.980;13.850;2023-04-24T05:18:59;12.90;99.90
19000;DHT22;9633;50.980;13.850;2023-04-24T05:20:39;13.00;99.90
19000;DHT22;9633;50.980;13.850;2023-04-24T05:22:13;13.20;99.90
19000;DHT22;9633;50.980;13.850;2023-04-24T05:23:53;13.40;99.90
19000;DHT22;9633;50.980;13.850;2023-04-24T05:25:45;13.50;99.90
19000;DHT22;9633;50.980;13.850;2023-04-24T05:27:20;13.60;99.90
19000;DHT22;9633;50.980;13.850;2023-04-24T05:28:53;13.60;99.90
19000;DHT22;9633;50.980;13.850;2023-04-24T05:30:26;13.60;99.90
19000;DHT22;9633;50.980;13.850;2023-04-24T05:32:00;13.60;99.90
19000;DHT22;9633;50.980;13.850;2023-04-24T05:33:35;13.60;99.90
19000;DHT22;9633;50.980;13.850;2023-04-24T05:35:08;13.50;99.90
19000;DHT22;9633;50.980;13.850;2023-04-24T05:36:43;13.60;99.90
19000;DHT22;9633;50.980;13.850;2023-04-24T05:38:16;13.60;99.90
19000;DHT22;9633;50.980;13.850;2023-04-24T05:39:51;13.50;99.90
19000;DHT22;9633;50.980;13.850;2023-04-24T05:41:23;13.60;99.90
19000;DHT22;9633;50.980;13.850;2023-04-24T05:42:57;13.60;99.90
19000;DHT22;9633;50.980;13.850;2023-04-24T05:44:30;13.70;99.90
19000;DHT22;9633;50.980;13.850;2023-04-24T05:46:04;13.80;99.90
19000;DHT22;9633;50.980;13.850;2023-04-24T05:47:37;13.90;99.90
19000;DHT22;9633;50.980;13.850;2023-04-24T05:49:10;14.00;99.90
19000;DHT22;9633;50.980;13.850;2023-04-24T05:50:44;13.90;99.90
19000;DHT22;9633;50.980;13.850;2023-04-24T05:52:21;13.80;99.90
19000;DHT22;9633;50.980;13.850;2023-04-24T05:53:54;13.80;99.90
19000;DHT22;9633;50.980;13.850;2023-04-24T05:55:30;14.00;99.90
19000;DHT22;9633;50.980;13.850;2023-04-24T05:57:03;14.10;99.90
19000;DHT22;9633;50.980;13.850;2023-04-24T05:58:56;14.10;99.90
19000;DHT22;9633;50.980;13.850;2023-04-24T06:00:30;14.20;99.90
19000;DHT22;9633;50.980;13.850;2023-04-24T06:02:09;14.20;99.90
19000;DHT22;9633;50.980;13.850;2023-04-24T06:03:42;14.20;99.90
19000;DHT22;9633;50.980;13.850;2023-04-24T06:05:16;14.20;99.90
19000;DHT22;9633;50.980;13.850;2023-04-24T06:06:49;14.30;99.90
19000;DHT22;9633;50.980;13.850;2023-04-24T06:08:28;14.30;99.90
19000;DHT22;9633;50.980;13.850;2023-04-24T06:10:02;14.40;99.90
19000;DHT22;9633;50.980;13.850;2023-04-24T06:11:42;14.50;99.90
19000;DHT22;9633;50.980;13.850;2023-04-24T06:13:17;14.70;99.90
19000;DHT22;9633;50.980;13.850;2023-04-24T06:15:10;14.80;99.90
19000;DHT22;9633;50.980;13.850;2023-04-24T06:17:08;15.00;99.90
19000;DHT22;9633;50.980;13.850;2023-04-24T06:18:44;15.00;99.90
19000;DHT22;9633;50.980;13.850;2023-04-24T06:20:19;15.10;99.90
19000;DHT22;9633;50.980;13.850;2023-04-24T06:21:53;15.20;99.90
19000;DHT22;9633;50.980;13.850;2023-04-24T06:23:26;15.30;99.90
19000;DHT22;9633;50.980;13.850;2023-04-24T06:25:01;15.50;99.90
19000;DHT22;9633;50.980;13.850;2023-04-24T06:26:34;15.60;99.90
19000;DHT22;9633;50.980;13.850;2023-04-24T06:28:07;15.90;99.90
19000;DHT22;9633;50.980;13.850;2023-04-24T06:29:40;16.20;99.90
19000;DHT22;9633;50.980;13.850;2023-04-24T06:31:14;16.50;99.90
19000;DHT22;9633;50.980;13.850;2023-04-24T06:32:48;16.70;99.90
19000;DHT22;9633;50.980;13.850;2023-04-24T06:34:21;16.80;98.10
19000;DHT22;9633;50.980;13.850;2023-04-24T06:35:54;17.10;96.20
19000;DHT22;9633;50.980;13.850;2023-04-24T06:37:27;17.40;72.90
19000;DHT22;9633;50.980;13.850;2023-04-24T06:38:59;17.40;68.40
19000;DHT22;9633;50.980;13.850;2023-04-24T06:40:34;17.30;61.50
19000;DHT22;9633;50.980;13.850;2023-04-24T06:42:07;17.30;80.90
19000;DHT22;9633;50.980;13.850;2023-04-24T06:43:41;17.30;65.30
19000;DHT22;9633;50.980;13.850;2023-04-24T06:45:14;17.10;66.70
19000;DHT22;9633;50.980;13.850;2023-04-24T06:46:47;17.00;65.90
19000;DHT22;9633;50.980;13.850;2023-04-24T06:48:20;16.90;62.00
19000;DHT22;9633;50.980;13.850;2023-04-24T06:49:53;16.90;57.20
19000;DHT22;9633;50.980;13.850;2023-04-24T06:51:27;16.90;62.00
19000;DHT22;9633;50.980;13.850;2023-04-24T06:53:00;16.90;70.30
19000;DHT22;9633;50.980;13.850;2023-04-24T06:54:33;17.00;55.10
19000;DHT22;9633;50.980;13.850;2023-04-24T06:56:08;17.10;59.90
19000;DHT22;9633;50.980;13.850;2023-04-24T06:57:41;17.10;51.30
19000;DHT22;9633;50.980;13.850;2023-04-24T06:59:15;17.00;50.90
19000;DHT22;9633;50.980;13.850;2023-04-24T07:00:48;17.00;46.00
19000;DHT22;9633;50.980;13.850;2023-04-24T07:02:22;17.10;51.00
19000;DHT22;9633;50.980;13.850;2023-04-24T07:03:56;17.10;50.50
19000;DHT22;9633;50.980;13.850;2023-04-24T07:05:29;17.30;51.60
19000;DHT22;9633;50.980;13.850;2023-04-24T07:07:03;17.30;48.10
19000;DHT22;9633;50.980;13.850;2023-04-24T07:08:37;16.80;32.20
19000;DHT22;9633;50.980;13.850;2023-04-24T07:10:10;16.40;34.60
19000;DHT22;9633;50.980;13.850;2023-04-24T07:11:45;15.90;37.10
19000;DHT22;9633;50.980;13.850;2023-04-24T07:13:18;16.10;42.80
19000;DHT22;9633;50.980;13.850;2023-04-24T07:14:52;16.20;39.10
19000;DHT22;9633;50.980;13.850;2023-04-24T07:16:25;16.30;32.80
19000;DHT22;9633;50.980;13.850;2023-04-24T07:17:59;16.40;33.60
19000;DHT22;9633;50.980;13.850;2023-04-24T07:19:36;16.60;34.00
19000;DHT22;9633;50.980;13.850;2023-04-24T07:21:09;16.50;32.30
19000;DHT22;9633;50.980;13.850;2023-04-24T07:22:43;16.40;37.30
19000;DHT22;9633;50.980;13.850;2023-04-24T07:24:16;16.10;34.90
19000;DHT22;9633;50.980;13.850;2023-04-24T07:25:52;16.40;40.30
19000;DHT22;9633;50.980;13.850;2023-04-24T07:27:27;16.60;37.00
19000;DHT22;9633;50.980;13.850;2023-04-24T07:29:00;16.90;34.30
19000;DHT22;9633;50.980;13.850;2023-04-24T07:30:34;17.10;34.80
19000;DHT22;9633;50.980;13.850;2023-04-24T07:32:07;17.00;33.00
19000;DHT22;9633;50.980;13.850;2023-04-24T07:33:40;16.80;30.00
19000;DHT22;9633;50.980;13.850;2023-04-24T07:35:17;16.90;35.10
19000;DHT22;9633;50.980;13.850;2023-04-24T07:36:51;16.90;33.10
19000;DHT22;9633;50.980;13.850;2023-04-24T07:38:25;16.70;35.60
19000;DHT22;9633;50.980;13.850;2023-04-24T07:39:58;16.60;35.10
19000;DHT22;9633;50.980;13.850;2023-04-24T07:41:31;16.60;36.60
19000;DHT22;9633;50.980;13.850;2023-04-24T07:43:05;16.50;36.40
19000;DHT22;9633;50.980;13.850;2023-04-24T07:44:39;16.50;34.90
19000;DHT22;9633;50.980;13.850;2023-04-24T07:46:12;16.50;37.20
19000;DHT22;9633;50.980;13.850;2023-04-24T07:47:45;16.60;33.60
19000;DHT22;9633;50.980;13.850;2023-04-24T07:49:18;16.70;33.50
19000;DHT22;9633;50.980;13.850;2023-04-24T07:50:52;16.90;29.80
19000;DHT22;9633;50.980;13.850;2023-04-24T07:52:25;16.60;30.20
19000;DHT22;9633;50.980;13.850;2023-04-24T07:53:58;16.70;34.50
19000;DHT22;9633;50.980;13.850;2023-04-24T07:55:31;16.60;31.60
19000;DHT22;9633;50.980;13.850;2023-04-24T07:57:04;16.70;36.70
19000;DHT22;9633;50.980;13.850;2023-04-24T07:58:41;16.80;29.30
19000;DHT22;9633;50.980;13.850;2023-04-24T08:00:15;17.00;29.60
19000;DHT22;9633;50.980;13.850;2023-04-24T08:01:48;17.10;32.80
19000;DHT22;9633;50.980;13.850;2023-04-24T08:03:21;17.10;32.80
19000;DHT22;9633;50.980;13.850;2023-04-24T08:04:55;17.40;32.90
19000;DHT22;9633;50.980;13.850;2023-04-24T08:06:31;17.50;33.70
19000;DHT22;9633;50.980;13.850;2023-04-24T08:08:04;17.60;34.20
19000;DHT22;9633;50.980;13.850;2023-04-24T08:09:37;17.70;31.30
19000;DHT22;9633;50.980;13.850;2023-04-24T08:11:10;17.60;30.40
19000;DHT22;9633;50.980;13.850;2023-04-24T08:12:44;17.50;29.70
19000;DHT22;9633;50.980;13.850;2023-04-24T08:14:18;17.50;33.80
19000;DHT22;9633;50.980;13.850;2023-04-24T08:15:51;17.60;33.10
19000;DHT22;9633;50.980;13.850;2023-04-24T08:17:24;17.80;31.80
19000;DHT22;9633;50.980;13.850;2023-04-24T08:18:58;17.90;34.10
19000;DHT22;9633;50.980;13.850;2023-04-24T08:20:31;18.10;33.40
19000;DHT22;9633;50.980;13.850;2023-04-24T08:22:04;17.90;33.60
19000;DHT22;9633;50.980;13.850;2023-04-24T08:23:37;17.70;30.80
19000;DHT22;9633;50.980;13.850;2023-04-24T08:25:11;17.60;36.70
19000;DHT22;9633;50.980;13.850;2023-04-24T08:26:44;17.70;35.80
19000;DHT22;9633;50.980;13.850;2023-04-24T08:28:17;17.40;34.80
19000;DHT22;9633;50.980;13.850;2023-04-24T08:29:54;17.20;34.10
19000;DHT22;9633;50.980;13.850;2023-04-24T08:31:27;17.10;34.20
19000;DHT22;9633;50.980;13.850;2023-04-24T08:33:00;17.20;37.00
19000;DHT22;9633;50.980;13.850;2023-04-24T08:34:34;17.30;35.10
19000;DHT22;9633;50.980;13.850;2023-04-24T08:36:07;17.30;36.90
19000;DHT22;9633;50.980;13.850;2023-04-24T08:37:40;17.40;42.10
19000;DHT22;9633;50.980;13.850;2023-04-24T08:39:14;17.40;41.40
19000;DHT22;9633;50.980;13.850;2023-04-24T08:40:47;17.10;41.60
19000;DHT22;9633;50.980;13.850;2023-04-24T08:42:21;17.10;40.00
19000;DHT22;9633;50.980;13.850;2023-04-24T08:43:55;17.20;41.10
19000;DHT22;9633;50.980;13.850;2023-04-24T08:45:32;17.20;39.60
19000;DHT22;9633;50.980;13.850;2023-04-24T08:47:07;17.20;39.00
19000;DHT22;9633;50.980;13.850;2023-04-24T08:48:41;17.40;41.00
19000;DHT22;9633;50.980;13.850;2023-04-24T08:50:14;17.40;40.80
19000;DHT22;9633;50.980;13.850;2023-04-24T08:51:49;17.30;40.50
19000;DHT22;9633;50.980;13.850;2023-04-24T08:53:23;17.20;39.50
19000;DHT22;9633;50.980;13.850;2023-04-24T08:54:57;17.20;41.00
19000;DHT22;9633;50.980;13.850;2023-04-24T08:56:33;17.30;42.60
19000;DHT22;9633;50.980;13.850;2023-04-24T08:58:09;17.70;43.90
19000;DHT22;9633;50.980;13.850;2023-04-24T08:59:43;17.90;44.80
19000;DHT22;9633;50.980;13.850;2023-04-24T09:01:19;18.10;44.90
19000;DHT22;9633;50.980;13.850;2023-04-24T09:02:53;18.40;40.40
19000;DHT22;9633;50.980;13.850;2023-04-24T09:04:28;18.20;40.30
19000;DHT22;9633;50.980;13.850;2023-04-24T09:06:02;17.90;40.90
19000;DHT22;9633;50.980;13.850;2023-04-24T09:07:39;17.80;40.10
19000;DHT22;9633;50.980;13.850;2023-04-24T09:09:16;17.70;40.30
19000;DHT22;9633;50.980;13.850;2023-04-24T09:10:50;17.40;40.10
19000;DHT22;9633;50.980;13.850;2023-04-24T09:12:23;17.00;40.70
19000;DHT22;9633;50.980;13.850;2023-04-24T09:13:57;16.60;39.80
19000;DHT22;9633;50.980;13.850;2023-04-24T09:15:31;16.40;39.50
19000;DHT22;9633;50.980;13.850;2023-04-24T09:17:06;16.10;39.20
19000;DHT22;9633;50.980;13.850;2023-04-24T09:18:40;16.10;40.30
19000;DHT22;9633;50.980;13.850;2023-04-24T09:20:13;16.20;39.30
19000;DHT22;9633;50.980;13.850;2023-04-24T09:21:46;15.80;33.40
19000;DHT22;9633;50.980;13.850;2023-04-24T09:23:19;15.70;30.20
19000;DHT22;9633;50.980;13.850;2023-04-24T09:25:01;15.40;28.30
19000;DHT22;9633;50.980;13.850;2023-04-24T09:26:36;15.00;40.00
19000;DHT22;9633;50.980;13.850;2023-04-24T09:28:09;14.80;44.10
19000;DHT22;9633;50.980;13.850;2023-04-24T09:29:53;14.90;42.60
19000;DHT22;9633;50.980;13.850;2023-04-24T09:31:28;15.20;58.90
19000;DHT22;9633;50.980;13.850;2023-04-24T09:33:13;15.50;90.40
19000;DHT22;9633;50.980;13.850;2023-04-24T09:34:48;16.30;68.70
19000;DHT22;9633;50.980;13.850;2023-04-24T09:36:27;16.90;53.20
19000;DHT22;9633;50.980;13.850;2023-04-24T09:38:00;17.40;35.70
19000;DHT22;9633;50.980;13.850;2023-04-24T09:39:33;17.70;26.60
19000;DHT22;9633;50.980;13.850;2023-04-24T09:41:07;18.10;26.20
19000;DHT22;9633;50.980;13.850;2023-04-24T09:42:43;18.40;23.80
19000;DHT22;9633;50.980;13.850;2023-04-24T09:44:18;18.50;26.20
19000;DHT22;9633;50.980;13.850;2023-04-24T09:45:55;18.20;25.20
19000;DHT22;9633;50.980;13.850;2023-04-24T09:47:36;17.10;23.50
19000;DHT22;9633;50.980;13.850;2023-04-24T09:49:13;17.00;25.80
19000;DHT22;9633;50.980;13.850;2023-04-24T09:50:46;17.10;27.80
19000;DHT22;9633;50.980;13.850;2023-04-24T09:52:19;17.20;28.40
19000;DHT22;9633;50.980;13.850;2023-04-24T09:53:54;16.80;25.40
19000;DHT22;9633;50.980;13.850;2023-04-24T09:55:28;16.60;25.50
19000;DHT22;9633;50.980;13.850;2023-04-24T09:57:02;16.70;25.40
19000;DHT22;9633;50.980;13.850;2023-04-24T09:58:36;16.40;24.30